createdAt,value
2018-08-24T00:00:02.722Z,1.97
2018-08-24T00:02:31.411Z,2.20
2018-08-24T00:05:00.143Z,2.30
2018-08-24T00:07:28.938Z,2.10
2018-08-24T00:09:57.539Z,2.93
2018-08-24T00:12:26.179Z,2.37
2018-08-24T00:14:55.721Z,2.37
2018-08-24T00:17:31.099Z,2.20
2018-08-24T00:20:00.693Z,2.33
2018-08-24T00:22:29.393Z,2.87
2018-08-24T00:24:58.040Z,2.13
2018-08-24T00:27:26.697Z,2.60
2018-08-24T00:29:55.392Z,2.87
2018-08-24T00:32:24.068Z,2.23
2018-08-24T00:34:52.930Z,2.33
2018-08-24T00:37:21.606Z,2.63
2018-08-24T00:39:50.271Z,2.10
2018-08-24T00:42:18.951Z,2.37
2018-08-24T00:44:47.599Z,2.10
2018-08-24T00:47:16.276Z,2.30
2018-08-24T00:49:44.935Z,2.10
2018-08-24T00:52:13.608Z,2.03
2018-08-24T00:54:42.296Z,3.17
2018-08-24T00:57:10.973Z,2.10
2018-08-24T00:59:39.662Z,1.80
2018-08-24T01:02:08.371Z,2.07
2018-08-24T01:04:37.390Z,1.50
2018-08-24T01:07:11.066Z,1.77
2018-08-24T01:09:40.529Z,1.97
2018-08-24T01:12:10.283Z,1.87
2018-08-24T01:14:40.104Z,1.77
2018-08-24T01:17:13.915Z,1.93
2018-08-24T01:19:43.173Z,1.90
2018-08-24T01:22:11.872Z,2.03
2018-08-24T01:24:40.591Z,2.13
2018-08-24T01:27:09.736Z,2.67
2018-08-24T01:29:39.603Z,2.00
2018-08-24T01:32:08.457Z,2.07
2018-08-24T01:34:37.755Z,2.17
2018-08-24T01:37:06.562Z,2.20
2018-08-24T01:39:35.245Z,1.93
2018-08-24T01:42:03.972Z,2.20
2018-08-24T01:44:32.644Z,2.23
2018-08-24T01:47:01.291Z,2.07
2018-08-24T01:49:29.952Z,2.10
2018-08-24T01:51:58.617Z,2.40
2018-08-24T01:54:27.253Z,2.33
2018-08-24T01:56:55.952Z,2.00
2018-08-24T01:59:24.678Z,2.53
2018-08-24T02:01:53.310Z,2.43
2018-08-24T02:04:21.980Z,2.40
2018-08-24T02:06:50.629Z,2.37
2018-08-24T02:09:22.379Z,2.00
2018-08-24T02:11:51.429Z,1.77
2018-08-24T02:14:25.391Z,2.13
2018-08-24T02:16:54.173Z,2.10
2018-08-24T02:19:27.884Z,1.73
2018-08-24T02:22:01.826Z,2.77
2018-08-24T02:24:30.503Z,2.00
2018-08-24T02:26:59.211Z,2.10
2018-08-24T02:29:27.884Z,2.20
2018-08-24T02:31:57.762Z,1.77
2018-08-24T02:34:26.443Z,2.17
2018-08-24T02:36:55.103Z,1.97
2018-08-24T02:39:23.766Z,1.60
2018-08-24T02:41:52.447Z,1.80
2018-08-24T02:44:21.152Z,2.07
2018-08-24T02:46:49.829Z,1.77
2018-08-24T02:49:18.460Z,2.07
2018-08-24T02:51:47.111Z,2.23
2018-08-24T02:54:15.801Z,1.83
2018-08-24T02:56:44.480Z,2.33
2018-08-24T02:59:13.209Z,2.50
2018-08-24T03:01:41.913Z,1.60
2018-08-24T03:04:10.580Z,1.90
2018-08-24T03:06:40.102Z,2.00
2018-08-24T03:09:10.526Z,2.03
2018-08-24T03:11:39.287Z,2.00
2018-08-24T03:14:08.209Z,1.80
2018-08-24T03:16:36.929Z,2.00
2018-08-24T03:19:05.574Z,1.60
2018-08-24T03:21:34.273Z,1.73
2018-08-24T03:24:03.006Z,1.60
2018-08-24T03:26:31.671Z,0.97
2018-08-24T03:29:00.350Z,2.00
2018-08-24T03:31:29.058Z,1.80
2018-08-24T03:33:57.736Z,1.70
2018-08-24T03:36:26.396Z,1.80
2018-08-24T03:38:55.064Z,2.17
2018-08-24T03:41:23.751Z,2.67
2018-08-24T03:43:52.478Z,1.70
2018-08-24T03:46:21.179Z,2.13
2018-08-24T03:48:49.847Z,2.20
2018-08-24T03:51:18.529Z,1.83
2018-08-24T03:53:47.210Z,2.50
2018-08-24T03:56:15.922Z,1.60
2018-08-24T03:58:44.605Z,1.60
2018-08-24T04:01:13.297Z,1.60
2018-08-24T04:03:41.960Z,1.90
2018-08-24T04:06:10.621Z,2.07
2018-08-24T04:08:39.269Z,1.50
2018-08-24T04:11:07.951Z,2.00
2018-08-24T04:13:36.599Z,1.40
2018-08-24T04:16:05.270Z,1.67
2018-08-24T04:18:33.959Z,1.87
2018-08-24T04:21:02.616Z,1.70
2018-08-24T04:23:31.297Z,1.47
2018-08-24T04:25:59.951Z,1.73
2018-08-24T04:28:28.625Z,1.83
2018-08-24T04:30:57.278Z,1.40
2018-08-24T04:33:25.935Z,2.37
2018-08-24T04:35:54.597Z,1.40
2018-08-24T04:38:23.261Z,1.83
2018-08-24T04:40:52.063Z,1.50
2018-08-24T04:43:20.705Z,2.00
2018-08-24T04:45:49.415Z,1.63
2018-08-24T04:48:18.079Z,1.70
2018-08-24T04:50:46.762Z,1.63
2018-08-24T04:53:15.444Z,1.23
2018-08-24T04:55:44.184Z,1.87
2018-08-24T04:58:12.860Z,1.80
2018-08-24T05:00:41.599Z,1.37
2018-08-24T05:03:10.266Z,1.80
2018-08-24T05:05:39.074Z,1.63
2018-08-24T05:08:07.760Z,1.43
2018-08-24T05:10:36.441Z,1.40
2018-08-24T05:13:05.117Z,1.50
2018-08-24T05:15:34.203Z,1.90
2018-08-24T05:18:02.908Z,2.10
2018-08-24T05:20:31.585Z,2.57
2018-08-24T05:23:00.273Z,1.47
2018-08-24T05:25:28.941Z,1.47
2018-08-24T05:27:57.660Z,1.60
2018-08-24T05:30:26.280Z,1.60
2018-08-24T05:32:55.004Z,1.93
2018-08-24T05:35:23.725Z,1.60
2018-08-24T05:37:52.385Z,1.53
2018-08-24T05:40:21.093Z,1.70
2018-08-24T05:42:49.784Z,1.57
2018-08-24T05:45:18.464Z,1.53
2018-08-24T05:47:47.101Z,1.53
2018-08-24T05:50:15.768Z,1.80
2018-08-24T05:52:44.457Z,1.80
2018-08-24T05:55:13.321Z,1.83
2018-08-24T05:57:42.069Z,1.53
2018-08-24T06:00:10.839Z,1.87
2018-08-24T06:02:39.617Z,1.50
2018-08-24T06:05:08.343Z,1.43
2018-08-24T06:07:36.986Z,1.50
2018-08-24T06:10:05.700Z,1.63
2018-08-24T06:12:34.409Z,1.40
2018-08-24T06:15:03.135Z,2.17
2018-08-24T06:17:37.036Z,1.93
2018-08-24T06:20:06.242Z,1.73
2018-08-24T06:22:34.921Z,1.93
2018-08-24T06:25:03.615Z,1.90
2018-08-24T06:27:32.298Z,1.93
2018-08-24T06:30:01.008Z,2.07
2018-08-24T06:32:29.672Z,1.47
2018-08-24T06:34:58.349Z,2.00
2018-08-24T06:37:27.073Z,1.50
2018-08-24T06:39:55.747Z,1.90
2018-08-24T06:42:24.470Z,1.97
2018-08-24T06:44:53.213Z,1.93
2018-08-24T06:47:21.976Z,1.70
2018-08-24T06:49:50.676Z,1.60
2018-08-24T06:52:19.375Z,1.70
2018-08-24T06:54:48.044Z,1.87
2018-08-24T06:57:16.859Z,2.23
2018-08-24T06:59:45.594Z,1.57
2018-08-24T07:02:14.267Z,2.03
2018-08-24T07:04:42.961Z,2.27
2018-08-24T07:07:11.731Z,1.77
2018-08-24T07:09:40.583Z,2.43
2018-08-24T07:12:11.149Z,2.50
2018-08-24T07:14:40.200Z,1.47
2018-08-24T07:17:08.884Z,1.90
2018-08-24T07:19:37.605Z,1.73
2018-08-24T07:22:06.386Z,1.70
2018-08-24T07:24:35.064Z,1.60
2018-08-24T07:27:03.807Z,1.83
2018-08-24T07:29:32.476Z,1.50
2018-08-24T07:32:01.169Z,2.27
2018-08-24T07:34:29.868Z,1.53
2018-08-24T07:36:58.584Z,1.50
2018-08-24T07:39:27.299Z,1.73
2018-08-24T07:41:55.990Z,2.23
2018-08-24T07:44:24.644Z,1.33
2018-08-24T07:46:53.358Z,1.70
2018-08-24T07:49:22.116Z,1.90
2018-08-24T07:51:50.791Z,2.10
2018-08-24T07:54:19.491Z,2.37
2018-08-24T07:56:48.149Z,2.27
2018-08-24T07:59:16.819Z,2.20
2018-08-24T08:01:45.720Z,1.97
2018-08-24T08:04:14.528Z,1.27
2018-08-24T08:06:43.215Z,2.20
2018-08-24T08:09:11.924Z,1.70
2018-08-24T08:11:41.264Z,1.80
2018-08-24T08:14:10.329Z,2.47
2018-08-24T08:16:39.035Z,1.23
2018-08-24T08:19:07.900Z,1.70
2018-08-24T08:21:36.694Z,1.27
2018-08-24T08:24:05.723Z,1.90
2018-08-24T08:26:34.715Z,1.70
2018-08-24T08:29:03.619Z,1.60
2018-08-24T08:31:32.550Z,1.83
2018-08-24T08:34:01.442Z,1.57
2018-08-24T08:36:30.310Z,1.57
2018-08-24T08:38:59.194Z,1.60
2018-08-24T08:41:27.948Z,1.77
2018-08-24T08:43:56.724Z,1.50
2018-08-24T08:46:25.617Z,1.70
2018-08-24T08:48:54.502Z,1.20
2018-08-24T08:51:23.258Z,1.53
2018-08-24T08:53:52.937Z,1.73
2018-08-24T08:56:21.853Z,1.50
2018-08-24T08:58:50.572Z,1.90
2018-08-24T09:01:19.261Z,1.37
2018-08-24T09:03:47.926Z,1.63
2018-08-24T09:06:16.604Z,1.30
2018-08-24T09:08:45.389Z,1.47
2018-08-24T09:11:14.081Z,1.27
2018-08-24T09:13:42.735Z,1.73
2018-08-24T09:16:11.387Z,1.23
2018-08-24T09:20:48.479Z,1.60
2018-08-24T09:23:22.210Z,1.93
2018-08-24T09:25:56.009Z,1.50
2018-08-24T09:28:29.720Z,1.30
2018-08-24T09:31:03.333Z,1.60
2018-08-24T09:33:31.984Z,1.50
2018-08-24T09:36:04.755Z,1.70
2018-08-24T09:38:33.422Z,1.60
2018-08-24T09:41:02.112Z,1.67
2018-08-24T09:43:35.904Z,1.00
2018-08-24T09:46:04.678Z,1.27
2018-08-24T09:48:38.576Z,1.23
2018-08-24T09:51:12.355Z,1.50
2018-08-24T09:53:46.122Z,1.00
2018-08-24T09:56:14.793Z,0.70
2018-08-24T09:58:43.490Z,1.20
2018-08-24T10:01:17.276Z,1.20
2018-08-24T10:03:51.031Z,1.70
2018-08-24T10:06:24.836Z,0.80
2018-08-24T10:08:53.512Z,0.90
2018-08-24T10:11:22.199Z,1.23
2018-08-24T10:13:50.889Z,1.03
2018-08-24T10:16:19.616Z,1.10
2018-08-24T10:18:48.284Z,1.37
2018-08-24T10:21:16.941Z,1.13
2018-08-24T10:23:45.693Z,0.80
2018-08-24T10:26:14.392Z,1.33
2018-08-24T10:28:43.075Z,1.20
2018-08-24T10:31:11.764Z,1.43
2018-08-24T10:33:40.489Z,0.93
2018-08-24T10:36:09.228Z,1.33
2018-08-24T10:38:37.985Z,1.60
2018-08-24T10:41:06.700Z,1.10
2018-08-24T10:43:35.399Z,1.57
2018-08-24T10:46:04.119Z,1.23
2018-08-24T10:48:32.764Z,1.17
2018-08-24T10:51:01.458Z,1.73
2018-08-24T10:53:30.132Z,1.10
2018-08-24T10:55:58.865Z,1.10
2018-08-24T10:58:27.540Z,1.63
2018-08-24T11:00:56.219Z,1.33
2018-08-24T11:03:24.940Z,1.07
2018-08-24T11:05:53.591Z,1.40
2018-08-24T11:08:22.282Z,1.33
2018-08-24T11:10:50.962Z,1.40
2018-08-24T11:13:19.683Z,1.97
2018-08-24T11:15:50.388Z,1.23
2018-08-24T11:18:19.247Z,1.47
2018-08-24T11:20:48.012Z,1.50
2018-08-24T11:23:16.723Z,1.97
2018-08-24T11:25:45.416Z,1.20
2018-08-24T11:28:14.094Z,1.40
2018-08-24T11:30:42.789Z,0.93
2018-08-24T11:33:11.544Z,0.97
2018-08-24T11:35:40.219Z,1.40
2018-08-24T11:38:08.981Z,1.10
2018-08-24T11:40:37.660Z,1.07
2018-08-24T11:43:06.341Z,1.30
2018-08-24T11:45:35.104Z,1.47
2018-08-24T11:48:03.865Z,1.00
2018-08-24T11:50:32.569Z,0.90
2018-08-24T11:53:01.252Z,0.97
2018-08-24T11:55:29.960Z,1.50
2018-08-24T11:57:58.608Z,0.93
2018-08-24T12:00:33.152Z,0.90
2018-08-24T12:03:02.576Z,1.30
2018-08-24T12:05:31.677Z,1.20
2018-08-24T12:08:00.451Z,1.30
2018-08-24T12:10:29.030Z,1.10
2018-08-24T12:12:58.181Z,1.07
2018-08-24T12:15:26.851Z,1.33
2018-08-24T12:17:55.896Z,1.50
2018-08-24T12:20:24.632Z,1.37
2018-08-24T12:22:53.380Z,1.57
2018-08-24T12:25:22.072Z,1.30
2018-08-24T12:27:50.735Z,1.80
2018-08-24T12:30:19.435Z,1.90
2018-08-24T12:32:48.140Z,1.77
2018-08-24T12:35:16.855Z,1.50
2018-08-24T12:37:46.827Z,1.20
2018-08-24T12:40:16.238Z,1.03
2018-08-24T12:42:45.079Z,1.50
2018-08-24T12:45:13.809Z,1.27
2018-08-24T12:47:42.532Z,1.67
2018-08-24T12:50:11.444Z,1.70
2018-08-24T12:52:40.135Z,1.37
2018-08-24T12:55:08.920Z,1.57
2018-08-24T12:57:37.611Z,1.50
2018-08-24T13:00:06.394Z,1.70
2018-08-24T13:02:35.060Z,1.40
2018-08-24T13:05:03.819Z,1.63
2018-08-24T13:07:32.512Z,2.00
2018-08-24T13:10:01.180Z,1.50
2018-08-24T13:12:29.877Z,1.20
2018-08-24T13:14:58.571Z,1.60
2018-08-24T13:17:27.269Z,1.87
2018-08-24T13:19:55.932Z,1.67
2018-08-24T13:22:24.636Z,1.60
2018-08-24T13:24:53.408Z,2.20
2018-08-24T13:27:22.201Z,2.47
2018-08-24T13:29:50.843Z,2.17
2018-08-24T13:32:19.600Z,1.47
2018-08-24T13:34:48.308Z,2.53
2018-08-24T13:37:17.029Z,1.70
2018-08-24T13:39:45.723Z,1.97
2018-08-24T13:42:14.437Z,2.20
2018-08-24T13:44:43.107Z,2.60
2018-08-24T13:47:11.865Z,1.63
2018-08-24T13:49:40.541Z,2.03
2018-08-24T13:52:09.260Z,1.47
2018-08-24T13:54:37.953Z,2.00
2018-08-24T13:57:06.684Z,2.00
2018-08-24T13:59:35.477Z,1.80
2018-08-24T14:02:04.194Z,2.17
2018-08-24T14:04:32.879Z,2.27
2018-08-24T14:07:01.600Z,2.13
2018-08-24T14:09:30.336Z,1.50
2018-08-24T14:11:59.072Z,2.73
2018-08-24T14:14:27.773Z,2.83
2018-08-24T14:16:56.509Z,2.30
2018-08-24T14:19:25.232Z,2.40
2018-08-24T14:21:53.961Z,2.10
2018-08-24T14:24:22.732Z,2.17
2018-08-24T14:26:51.418Z,2.63
2018-08-24T14:29:20.165Z,2.43
2018-08-24T14:31:49.039Z,2.57
2018-08-24T14:34:17.657Z,2.20
2018-08-24T14:36:46.407Z,3.03
2018-08-24T14:39:15.113Z,2.17
2018-08-24T14:41:43.787Z,2.50
2018-08-24T14:44:12.692Z,2.43
2018-08-24T14:46:41.378Z,2.33
2018-08-24T14:49:10.086Z,2.57
2018-08-24T14:51:38.856Z,2.60
2018-08-24T14:54:07.640Z,2.23
2018-08-24T14:56:36.324Z,3.00
2018-08-24T14:59:05.060Z,2.30
2018-08-24T15:01:33.811Z,2.60
2018-08-24T15:04:02.519Z,2.43
2018-08-24T15:06:31.249Z,2.90
2018-08-24T15:08:59.970Z,2.40
2018-08-24T15:11:28.680Z,2.57
2018-08-24T15:13:57.355Z,3.43
2018-08-24T15:16:26.074Z,1.93
2018-08-24T15:18:54.788Z,3.00
2018-08-24T15:21:23.475Z,2.80
2018-08-24T15:23:52.180Z,2.93
2018-08-24T15:26:21.087Z,2.00
2018-08-24T15:28:49.872Z,2.20
2018-08-24T15:31:18.587Z,2.20
2018-08-24T15:33:47.323Z,1.80
2018-08-24T15:36:16.004Z,1.70
2018-08-24T15:38:44.694Z,1.27
2018-08-24T15:41:13.388Z,1.50
2018-08-24T15:43:42.069Z,2.13
2018-08-24T15:46:10.815Z,1.60
2018-08-24T15:48:39.532Z,2.47
2018-08-24T15:51:08.217Z,2.40
2018-08-24T15:53:36.922Z,2.77
2018-08-24T15:56:05.698Z,2.13
2018-08-24T15:58:34.420Z,3.37
2018-08-24T16:01:03.111Z,3.57
2018-08-24T16:03:31.789Z,3.47
2018-08-24T16:06:00.487Z,2.27
2018-08-24T16:08:29.235Z,2.80
2018-08-24T16:10:57.912Z,2.10
2018-08-24T16:13:26.612Z,2.53
2018-08-24T16:15:55.367Z,2.33
2018-08-24T16:18:24.876Z,1.90
2018-08-24T16:20:54.404Z,2.43
2018-08-24T16:23:23.131Z,2.40
2018-08-24T16:25:51.880Z,1.90
2018-08-24T16:28:20.672Z,2.20
2018-08-24T16:30:49.352Z,2.10
2018-08-24T16:33:18.645Z,1.87
2018-08-24T16:35:47.395Z,2.50
2018-08-24T16:38:16.567Z,1.63
2018-08-24T16:40:45.220Z,1.80
2018-08-24T16:43:14.473Z,2.10
2018-08-24T16:45:43.183Z,2.00
2018-08-24T16:48:12.885Z,1.63
2018-08-24T16:50:41.608Z,1.70
2018-08-24T16:53:10.268Z,2.00
2018-08-24T16:55:38.968Z,2.50
2018-08-24T16:58:07.780Z,2.60
2018-08-24T17:00:36.429Z,2.10
2018-08-24T17:03:05.100Z,1.87
2018-08-24T17:05:33.783Z,3.13
2018-08-24T17:08:02.439Z,2.07
2018-08-24T17:10:31.101Z,3.00
2018-08-24T17:12:59.889Z,2.50
2018-08-24T17:15:28.518Z,2.63
2018-08-24T17:17:57.249Z,3.03
2018-08-24T17:20:25.936Z,2.20
2018-08-24T17:22:54.622Z,2.57
2018-08-24T17:25:23.336Z,2.03
2018-08-24T17:27:52.011Z,2.40
2018-08-24T17:30:20.715Z,2.87
2018-08-24T17:32:49.463Z,2.10
2018-08-24T17:35:18.119Z,2.53
2018-08-24T17:37:46.794Z,2.00
2018-08-24T17:40:15.476Z,1.90
2018-08-24T17:42:44.168Z,1.50
2018-08-24T17:45:12.860Z,1.70
2018-08-24T17:47:41.620Z,2.10
2018-08-24T17:50:10.309Z,1.47
2018-08-24T17:52:38.989Z,2.73
2018-08-24T17:55:07.873Z,1.40
2018-08-24T17:57:36.584Z,2.33
2018-08-24T18:00:05.407Z,1.83
2018-08-24T18:02:34.071Z,1.93
2018-08-24T18:05:02.747Z,1.50
2018-08-24T18:07:31.440Z,1.63
2018-08-24T18:10:00.121Z,2.00
2018-08-24T18:12:28.816Z,1.60
2018-08-24T18:14:57.596Z,1.80
2018-08-24T18:17:26.210Z,2.03
2018-08-24T18:19:54.916Z,2.03
2018-08-24T18:22:23.603Z,2.13
2018-08-24T18:24:52.288Z,1.53
2018-08-24T18:27:21.008Z,2.40
2018-08-24T18:29:49.791Z,2.03
2018-08-24T18:32:18.485Z,1.70
2018-08-24T18:34:47.151Z,2.30
2018-08-24T18:37:15.816Z,1.93
2018-08-24T18:39:44.518Z,1.60
2018-08-24T18:42:13.201Z,2.00
2018-08-24T18:44:41.877Z,1.70
2018-08-24T18:47:10.680Z,2.30
2018-08-24T18:49:39.384Z,1.93
2018-08-24T18:52:08.115Z,1.73
2018-08-24T18:54:36.813Z,2.10
2018-08-24T18:57:05.524Z,2.03
2018-08-24T18:59:34.242Z,1.87
2018-08-24T19:02:02.979Z,2.70
2018-08-24T19:04:31.682Z,2.00
2018-08-24T19:07:00.368Z,1.97
2018-08-24T19:09:29.255Z,1.60
2018-08-24T19:12:04.157Z,1.50
2018-08-24T19:14:33.856Z,1.77
2018-08-24T19:17:02.626Z,1.80
2018-08-24T19:19:36.454Z,2.10
2018-08-24T19:22:05.562Z,2.43
2018-08-24T19:24:34.376Z,2.20
2018-08-24T19:27:03.216Z,1.80
2018-08-24T19:29:37.133Z,2.30
2018-08-24T19:32:05.963Z,2.47
2018-08-24T19:34:34.669Z,2.10
2018-08-24T19:37:03.328Z,2.40
2018-08-24T19:39:32.317Z,2.27
2018-08-24T19:42:06.032Z,1.80
2018-08-24T19:44:34.766Z,2.30
2018-08-24T19:47:03.589Z,1.60
2018-08-24T19:49:35.859Z,1.83
2018-08-24T19:52:04.702Z,2.67
2018-08-24T19:54:33.423Z,2.50
2018-08-24T19:57:07.291Z,1.97
2018-08-24T19:59:36.039Z,1.80
2018-08-24T20:02:04.714Z,1.70
2018-08-24T20:04:33.487Z,1.50
2018-08-24T20:07:07.515Z,1.50
2018-08-24T20:09:41.318Z,1.77
2018-08-24T20:12:10.906Z,1.50
2018-08-24T20:14:44.755Z,1.50
2018-08-24T20:17:32.753Z,1.33
2018-08-24T20:20:01.379Z,1.30
2018-08-24T20:22:30.103Z,1.20
2018-08-24T20:24:58.811Z,1.57
2018-08-24T20:27:27.549Z,1.40
2018-08-24T20:29:56.165Z,1.50
2018-08-24T20:32:24.835Z,1.50
2018-08-24T20:34:53.497Z,1.47
2018-08-24T20:37:22.221Z,1.93
2018-08-24T20:39:50.862Z,1.10
2018-08-24T20:42:19.510Z,1.87
2018-08-24T20:44:48.119Z,1.10
2018-08-24T20:47:16.861Z,1.27
2018-08-24T20:49:45.477Z,1.10
2018-08-24T20:52:14.118Z,1.30
2018-08-24T20:54:42.813Z,1.63
2018-08-24T20:57:11.506Z,1.33
2018-08-24T20:59:40.198Z,1.10
2018-08-24T21:02:09.256Z,1.30
2018-08-24T21:04:37.869Z,1.60
2018-08-24T21:07:06.782Z,1.50
2018-08-24T21:09:35.384Z,1.40
2018-08-24T21:12:04.047Z,1.60
2018-08-24T21:14:32.815Z,1.20
2018-08-24T21:17:01.558Z,1.23
2018-08-24T21:19:30.318Z,1.50
2018-08-24T21:21:59.002Z,1.23
2018-08-24T21:24:27.698Z,1.70
2018-08-24T21:26:56.443Z,1.30
2018-08-24T21:29:25.160Z,1.23
2018-08-24T21:31:53.839Z,1.10
2018-08-24T21:34:22.653Z,1.50
2018-08-24T21:36:51.280Z,1.33
2018-08-24T21:39:19.930Z,1.33
2018-08-24T21:41:48.578Z,1.53
2018-08-24T21:44:17.205Z,1.70
2018-08-24T21:46:45.817Z,1.37
2018-08-24T21:49:14.441Z,1.50
2018-08-24T21:51:43.062Z,1.50
2018-08-24T21:54:11.648Z,1.00
2018-08-24T21:56:40.209Z,1.70
2018-08-24T21:59:08.806Z,1.20
2018-08-24T22:01:37.488Z,1.30
2018-08-24T22:04:06.082Z,1.10
2018-08-24T22:06:34.663Z,1.30
2018-08-24T22:09:03.681Z,2.10
2018-08-24T22:11:32.409Z,1.30
2018-08-24T22:14:01.147Z,1.10
2018-08-24T22:16:29.951Z,1.50
2018-08-24T22:18:58.573Z,1.37
2018-08-24T22:21:27.204Z,1.07
2018-08-24T22:23:55.845Z,1.67
2018-08-24T22:26:24.592Z,1.03
2018-08-24T22:28:53.247Z,1.33
2018-08-24T22:31:21.947Z,1.13
2018-08-24T22:33:50.628Z,1.50
2018-08-24T22:36:19.295Z,1.20
2018-08-24T22:38:48.045Z,1.10
2018-08-24T22:41:16.702Z,1.10
2018-08-24T22:43:45.374Z,1.00
2018-08-24T22:46:13.995Z,1.40
2018-08-24T22:48:42.654Z,1.40
2018-08-24T22:51:11.343Z,1.30
2018-08-24T22:53:39.983Z,1.20
2018-08-24T22:56:08.688Z,1.30
2018-08-24T22:58:37.358Z,1.97
2018-08-24T23:01:06.270Z,1.30
2018-08-24T23:03:34.921Z,1.23
2018-08-24T23:06:03.569Z,1.73
2018-08-24T23:08:32.211Z,2.10
2018-08-24T23:11:01.056Z,1.77
2018-08-24T23:13:29.747Z,1.30
2018-08-24T23:15:58.353Z,1.30
2018-08-24T23:18:27.076Z,1.30
2018-08-24T23:20:55.790Z,1.20
2018-08-24T23:23:24.448Z,1.60
2018-08-24T23:25:53.098Z,1.50
2018-08-24T23:28:21.761Z,1.40
2018-08-24T23:30:50.389Z,1.20
2018-08-24T23:33:19.258Z,1.30
2018-08-24T23:35:47.921Z,1.50
2018-08-24T23:38:16.650Z,2.20
2018-08-24T23:40:45.371Z,2.00
2018-08-24T23:43:14.064Z,1.90
2018-08-24T23:45:42.731Z,1.43
2018-08-24T23:48:11.330Z,1.20
2018-08-24T23:50:39.942Z,1.60
2018-08-24T23:53:08.596Z,1.30
2018-08-24T23:55:37.262Z,1.60
2018-08-24T23:58:06.175Z,1.40
